Time;durP1;ratioP1;P1;durP2;ratioP2;P2;SDS_P1;SDS_P2;PMS_P1;PMS_P2;Temp;Humidity;BMP_temperature;BMP_pressure;BME280_temperature;BME280_humidity;BME280_pressure;Samples;Min_cycle;Max_cycle;Signal;HPM_P1;HPM_P2
2023/07/17 00:02:10;;;;;;;6.40;6.13;;;19.70;99.90;;;;;;5038458;28;20211;-63
2023/07/17 00:04:37;;;;;;;6.13;5.93;;;19.70;99.90;;;;;;5036060;28;20211;-64
2023/07/17 00:07:05;;;;;;;6.20;6.00;;;19.70;99.90;;;;;;5034554;28;20587;-63
2023/07/17 00:09:32;;;;;;;5.95;5.65;;;19.70;99.90;;;;;;5033214;28;20809;-64
2023/07/17 00:11:59;;;;;;;6.22;6.00;;;19.70;99.90;;;;;;5033248;28;20207;-63
2023/07/17 00:14:26;;;;;;;6.78;6.57;;;19.80;99.90;;;;;;5033931;28;20208;-62
2023/07/17 00:16:53;;;;;;;5.90;5.70;;;19.80;99.90;;;;;;5033312;28;20343;-63
2023/07/17 00:19:20;;;;;;;6.18;5.97;;;19.80;99.90;;;;;;5033444;28;20239;-62
2023/07/17 00:21:46;;;;;;;6.28;6.07;;;19.80;99.90;;;;;;5036306;28;20251;-62
2023/07/17 00:24:15;;;;;;;5.80;5.60;;;19.70;99.90;;;;;;5035757;28;20213;-64
2023/07/17 00:26:41;;;;;;;6.13;5.93;;;19.80;99.90;;;;;;5034045;28;20247;-63
2023/07/17 00:29:23;;;;;;;6.25;5.95;;;19.70;99.90;;;;;;5030692;28;20227;-63
2023/07/17 00:31:50;;;;;;;6.00;5.80;;;19.70;99.90;;;;;;5032006;28;20208;-64
2023/07/17 00:34:16;;;;;;;5.85;5.65;;;19.60;99.90;;;;;;5033126;28;20208;-63
2023/07/17 00:36:43;;;;;;;6.18;5.93;;;19.60;99.90;;;;;;5033008;28;20301;-62
2023/07/17 00:39:10;;;;;;;6.47;6.28;;;19.70;99.90;;;;;;5062411;22;20600;-58
2023/07/17 00:41:38;;;;;;;6.32;6.13;;;19.60;99.90;;;;;;5053327;28;20208;-58
2023/07/17 00:44:05;;;;;;;7.50;7.20;;;19.60;99.90;;;;;;5050930;28;20218;-59
2023/07/17 00:46:34;;;;;;;7.20;6.97;;;19.50;99.90;;;;;;5052279;28;20212;-59
2023/07/17 00:49:03;;;;;;;6.75;6.50;;;19.50;99.90;;;;;;5052639;28;20216;-59
2023/07/17 00:51:31;;;;;;;6.18;5.97;;;19.40;99.90;;;;;;5056148;28;20661;-59
2023/07/17 00:53:58;;;;;;;6.07;5.88;;;19.40;99.90;;;;;;5057023;28;20402;-60
2023/07/17 00:56:27;;;;;;;6.28;6.07;;;19.40;99.90;;;;;;5056048;28;20208;-59
2023/07/17 00:58:56;;;;;;;6.00;5.80;;;19.30;99.90;;;;;;5052262;28;20232;-59
2023/07/17 01:01:23;;;;;;;6.05;5.85;;;19.30;99.90;;;;;;5051277;28;20212;-60
2023/07/17 01:03:52;;;;;;;7.00;6.70;;;19.30;99.90;;;;;;5051402;28;20202;-59
2023/07/17 01:06:18;;;;;;;5.93;5.72;;;19.30;99.90;;;;;;5052569;28;20207;-58
2023/07/17 01:08:45;;;;;;;8.32;8.02;;;19.30;99.90;;;;;;5049165;28;20226;-58
2023/07/17 01:11:13;;;;;;;6.15;5.95;;;19.40;99.90;;;;;;5052840;28;20223;-58
2023/07/17 01:13:47;;;;;;;6.80;6.50;;;19.40;99.90;;;;;;5053520;28;20212;-58
2023/07/17 01:16:15;;;;;;;6.43;6.22;;;19.40;99.90;;;;;;5052879;28;20211;-57
2023/07/17 01:18:42;;;;;;;6.20;6.00;;;19.40;99.90;;;;;;5052182;28;20232;-58
2023/07/17 01:21:12;;;;;;;6.60;6.40;;;19.40;99.90;;;;;;5051039;28;20211;-60
2023/07/17 01:23:40;;;;;;;6.25;6.05;;;19.40;99.90;;;;;;5051605;28;20207;-59
2023/07/17 01:26:15;;;;;;;6.30;6.10;;;19.40;99.90;;;;;;5050738;28;20218;-59
2023/07/17 01:28:42;;;;;;;6.05;5.75;;;19.40;99.90;;;;;;5051702;28;20220;-59
2023/07/17 01:31:10;;;;;;;6.13;5.93;;;19.40;99.90;;;;;;5050387;28;20208;-59
2023/07/17 01:33:37;;;;;;;6.13;5.93;;;19.40;99.90;;;;;;5063326;28;20322;-59
2023/07/17 01:36:06;;;;;;;5.80;5.60;;;19.40;99.90;;;;;;5070386;28;20293;-59
2023/07/17 01:38:34;;;;;;;6.43;6.22;;;19.40;99.90;;;;;;5071262;28;20227;-60
2023/07/17 01:41:02;;;;;;;6.97;6.70;;;19.40;99.90;;;;;;5070546;28;20218;-59
2023/07/17 01:43:29;;;;;;;6.68;6.38;;;19.30;99.90;;;;;;5070847;28;20210;-58
2023/07/17 01:45:56;;;;;;;6.32;6.07;;;19.20;99.90;;;;;;5070835;28;20203;-59
2023/07/17 01:48:22;;;;;;;6.65;6.45;;;19.30;99.90;;;;;;5075647;28;20215;-58
2023/07/17 01:50:49;;;;;;;6.28;6.07;;;19.30;99.90;;;;;;5078727;28;20735;-58
2023/07/17 01:53:20;;;;;;;6.70;6.40;;;19.30;99.90;;;;;;5078535;28;20207;-60
2023/07/17 01:55:47;;;;;;;6.70;6.40;;;19.20;99.90;;;;;;5086410;28;20599;-58
2023/07/17 01:58:15;;;;;;;6.40;6.20;;;19.20;99.90;;;;;;5082384;28;20693;-58
2023/07/17 02:00:42;;;;;;;6.47;6.18;;;19.10;99.90;;;;;;5073810;28;20203;-59
2023/07/17 02:03:09;;;;;;;6.03;5.82;;;19.20;99.90;;;;;;5079816;28;20209;-60
2023/07/17 02:05:36;;;;;;;6.38;6.18;;;19.10;99.90;;;;;;5081897;28;20221;-61
2023/07/17 02:08:02;;;;;;;6.20;6.00;;;19.20;99.90;;;;;;5073655;28;20898;-60
2023/07/17 02:10:29;;;;;;;6.78;6.40;;;19.20;99.90;;;;;;5070069;28;20199;-58
2023/07/17 02:12:56;;;;;;;6.28;6.00;;;19.10;99.90;;;;;;5077804;28;20203;-59
2023/07/17 02:15:25;;;;;;;6.20;6.00;;;19.10;99.90;;;;;;5072371;28;20209;-58
2023/07/17 02:17:51;;;;;;;6.45;6.25;;;19.00;99.90;;;;;;5087094;28;20227;-61
2023/07/17 02:20:18;;;;;;;7.13;6.82;;;19.00;99.90;;;;;;5074330;28;20207;-59
2023/07/17 02:22:45;;;;;;;6.45;6.25;;;19.00;99.90;;;;;;5070576;28;20213;-60
2023/07/17 02:25:12;;;;;;;6.30;6.10;;;19.00;99.90;;;;;;5070636;28;20199;-59
2023/07/17 02:27:39;;;;;;;8.07;7.78;;;19.00;99.90;;;;;;5069950;28;20227;-59
2023/07/17 02:30:07;;;;;;;6.20;6.00;;;18.90;99.90;;;;;;5068120;28;20195;-59
2023/07/17 02:32:35;;;;;;;8.52;8.23;;;18.90;99.90;;;;;;5069570;28;20209;-58
2023/07/17 02:35:02;;;;;;;6.70;6.40;;;18.90;99.90;;;;;;5070137;28;20215;-59
2023/07/17 02:37:29;;;;;;;6.18;5.97;;;18.90;99.90;;;;;;5071292;28;20575;-59
2023/07/17 02:39:56;;;;;;;5.93;5.72;;;18.90;99.90;;;;;;5069414;28;20267;-59
2023/07/17 02:42:23;;;;;;;6.53;6.22;;;18.80;99.90;;;;;;5069791;28;20207;-59
2023/07/17 02:44:50;;;;;;;6.15;5.95;;;18.80;99.90;;;;;;5050680;28;20199;-58
2023/07/17 02:47:17;;;;;;;6.07;5.88;;;18.80;99.90;;;;;;5049950;28;20265;-59
2023/07/17 02:49:45;;;;;;;5.85;5.65;;;18.70;99.90;;;;;;5049524;28;20207;-57
2023/07/17 02:52:12;;;;;;;6.00;5.80;;;18.70;99.90;;;;;;5050868;28;20641;-57
2023/07/17 02:54:39;;;;;;;7.03;6.80;;;18.70;99.90;;;;;;5051634;28;20210;-58
2023/07/17 02:57:06;;;;;;;6.07;5.88;;;18.60;99.90;;;;;;5052110;28;20211;-61
2023/07/17 02:59:33;;;;;;;5.55;5.35;;;18.70;99.90;;;;;;5054173;28;20225;-59
2023/07/17 03:02:00;;;;;;;5.88;5.68;;;18.70;99.90;;;;;;5052886;28;20204;-60
2023/07/17 03:04:27;;;;;;;6.03;5.82;;;18.70;99.90;;;;;;5066788;28;20211;-60
2023/07/17 03:06:55;;;;;;;6.05;5.85;;;18.60;99.90;;;;;;5073448;28;20673;-58
2023/07/17 03:09:22;;;;;;;6.15;5.95;;;18.50;99.90;;;;;;5072386;28;20215;-58
2023/07/17 03:11:49;;;;;;;5.53;5.32;;;18.50;99.90;;;;;;5072565;28;20203;-57
2023/07/17 03:14:16;;;;;;;5.72;5.53;;;18.50;99.90;;;;;;5073288;28;20207;-60
2023/07/17 03:16:43;;;;;;;5.85;5.65;;;18.50;99.90;;;;;;5072875;28;20245;-60
2023/07/17 03:19:10;;;;;;;5.83;5.63;;;18.50;99.90;;;;;;5072531;28;20593;-59
2023/07/17 03:21:37;;;;;;;5.90;5.70;;;18.40;99.90;;;;;;5073260;28;20207;-58
2023/07/17 03:24:06;;;;;;;5.82;5.63;;;18.40;99.90;;;;;;5071556;28;20211;-59
2023/07/17 03:26:33;;;;;;;6.05;5.85;;;18.50;99.90;;;;;;5074467;28;20204;-58
2023/07/17 03:29:00;;;;;;;5.75;5.45;;;18.50;99.90;;;;;;5073121;28;20216;-60
2023/07/17 03:31:27;;;;;;;5.80;5.60;;;18.40;99.90;;;;;;5072251;28;20211;-59
2023/07/17 03:33:53;;;;;;;6.45;6.15;;;18.60;99.90;;;;;;5072068;28;20213;-58
2023/07/17 03:36:21;;;;;;;5.50;5.30;;;18.70;99.90;;;;;;5072780;28;20238;-58
2023/07/17 03:38:48;;;;;;;5.60;5.40;;;18.90;99.90;;;;;;5072420;28;20231;-60
2023/07/17 03:41:20;;;;;;;5.47;5.28;;;19.00;99.90;;;;;;5071995;28;20298;-60
2023/07/17 03:43:47;;;;;;;5.80;5.57;;;19.10;99.90;;;;;;5071725;28;20207;-60
2023/07/17 03:46:14;;;;;;;5.90;5.70;;;19.10;99.90;;;;;;5072280;28;20207;-60
2023/07/17 03:48:41;;;;;;;6.03;5.83;;;19.10;99.90;;;;;;5072041;28;20216;-60
2023/07/17 03:51:07;;;;;;;6.38;6.10;;;19.20;99.90;;;;;;5071428;28;20207;-59
2023/07/17 03:53:34;;;;;;;6.15;5.80;;;19.20;99.90;;;;;;5072008;28;20226;-59
2023/07/17 03:56:01;;;;;;;6.05;5.85;;;19.20;99.90;;;;;;5071104;28;20211;-59
2023/07/17 03:58:29;;;;;;;5.93;5.72;;;19.30;99.90;;;;;;5072731;28;20277;-58
2023/07/17 04:00:56;;;;;;;6.15;5.93;;;19.40;99.90;;;;;;5072608;28;20203;-60
2023/07/17 04:03:23;;;;;;;5.78;5.57;;;19.40;99.90;;;;;;5072571;28;20206;-59
2023/07/17 04:05:50;;;;;;;6.07;5.85;;;19.40;99.90;;;;;;5071479;28;20209;-59
2023/07/17 04:08:17;;;;;;;6.20;6.00;;;19.30;99.90;;;;;;5071395;28;20233;-57
2023/07/17 04:10:43;;;;;;;6.00;5.80;;;19.40;99.90;;;;;;5070930;28;20695;-58
2023/07/17 04:13:10;;;;;;;5.82;5.63;;;19.30;99.90;;;;;;5071969;28;20799;-58
2023/07/17 04:15:39;;;;;;;5.80;5.60;;;19.30;99.90;;;;;;5071477;28;20211;-59
2023/07/17 04:18:06;;;;;;;6.00;5.80;;;19.30;99.90;;;;;;5071554;28;20228;-58
2023/07/17 04:20:33;;;;;;;5.78;5.57;;;19.30;99.90;;;;;;5071084;28;20237;-58
2023/07/17 04:23:00;;;;;;;6.00;5.80;;;19.30;99.90;;;;;;5071776;28;20207;-58
2023/07/17 04:25:26;;;;;;;6.10;5.90;;;19.30;99.90;;;;;;5071551;28;20210;-58
2023/07/17 04:27:53;;;;;;;6.60;6.40;;;19.30;99.90;;;;;;5054125;28;20231;-60
2023/07/17 04:30:20;;;;;;;5.85;5.65;;;19.20;99.90;;;;;;5050188;28;20207;-60
2023/07/17 04:32:48;;;;;;;6.18;5.97;;;19.30;99.90;;;;;;5052790;28;20206;-60
2023/07/17 04:35:15;;;;;;;5.82;5.63;;;19.30;99.90;;;;;;5053073;28;20206;-60
2023/07/17 04:37:42;;;;;;;5.82;5.63;;;19.30;99.90;;;;;;5052331;28;20240;-60
2023/07/17 04:40:10;;;;;;;6.10;5.90;;;19.20;99.90;;;;;;5052299;28;20281;-59
2023/07/17 04:42:37;;;;;;;6.53;6.30;;;19.20;99.90;;;;;;5052771;28;20203;-59
2023/07/17 04:45:05;;;;;;;6.20;6.00;;;19.20;99.90;;;;;;5052219;28;20728;-59
2023/07/17 04:47:32;;;;;;;5.90;5.70;;;19.10;99.90;;;;;;5051267;28;20228;-59
2023/07/17 04:50:00;;;;;;;6.18;5.97;;;19.00;99.90;;;;;;5050801;28;20212;-58
2023/07/17 04:52:27;;;;;;;6.30;6.10;;;19.00;99.90;;;;;;5051251;28;20215;-59
2023/07/17 04:54:54;;;;;;;6.05;5.85;;;18.90;99.90;;;;;;5052262;28;20696;-59
2023/07/17 04:57:21;;;;;;;6.43;6.22;;;19.00;99.90;;;;;;5056273;28;20230;-59
2023/07/17 04:59:47;;;;;;;6.50;6.20;;;19.00;99.90;;;;;;5070384;28;20222;-59
2023/07/17 05:02:14;;;;;;;6.10;5.90;;;18.90;99.90;;;;;;5072612;28;20616;-59
2023/07/17 05:04:41;;;;;;;6.15;5.95;;;19.00;99.90;;;;;;5061096;28;20201;-59
2023/07/17 05:07:09;;;;;;;6.15;5.90;;;18.90;99.90;;;;;;5052232;28;20211;-59
2023/07/17 05:09:36;;;;;;;5.90;5.70;;;19.10;99.90;;;;;;5050013;28;20219;-59
2023/07/17 05:12:03;;;;;;;5.80;5.60;;;19.10;99.90;;;;;;5051063;28;20208;-61
2023/07/17 05:14:30;;;;;;;5.90;5.60;;;19.30;99.90;;;;;;5050839;28;20212;-60
2023/07/17 05:16:57;;;;;;;5.70;5.50;;;19.40;99.90;;;;;;5052107;28;20700;-60
2023/07/17 05:19:24;;;;;;;6.30;6.10;;;19.50;99.90;;;;;;5056616;28;20220;-60
2023/07/17 05:21:50;;;;;;;6.75;6.45;;;19.60;99.90;;;;;;5053152;28;20200;-59
2023/07/17 05:24:19;;;;;;;5.97;5.78;;;19.60;99.90;;;;;;5059133;28;20203;-59
2023/07/17 05:26:46;;;;;;;6.25;6.05;;;19.70;99.90;;;;;;5053963;28;20286;-59
2023/07/17 05:29:13;;;;;;;6.30;6.10;;;19.90;99.90;;;;;;5051614;28;20228;-58
2023/07/17 05:31:40;;;;;;;6.28;5.97;;;20.00;99.90;;;;;;5049931;28;20206;-60
2023/07/17 05:34:06;;;;;;;6.03;5.72;;;20.10;99.90;;;;;;5050590;28;20204;-59
2023/07/17 05:36:33;;;;;;;6.22;6.03;;;20.00;99.90;;;;;;5034202;28;20214;-62
2023/07/17 05:39:00;;;;;;;6.30;6.10;;;20.10;99.90;;;;;;5049831;28;20237;-63
2023/07/17 05:41:28;;;;;;;6.15;5.95;;;20.20;99.90;;;;;;5055465;28;20204;-63
2023/07/17 05:43:55;;;;;;;6.07;5.88;;;20.20;99.90;;;;;;5050703;28;20207;-65
2023/07/17 05:46:22;;;;;;;6.18;5.97;;;20.30;99.90;;;;;;5048233;28;20208;-61
2023/07/17 05:48:48;;;;;;;6.18;5.97;;;20.50;99.90;;;;;;5050896;28;20308;-61
2023/07/17 05:51:15;;;;;;;6.20;6.00;;;20.60;99.90;;;;;;5050319;28;20200;-62
2023/07/17 05:53:42;;;;;;;6.20;5.90;;;20.80;99.90;;;;;;5048058;28;20235;-61
2023/07/17 05:56:09;;;;;;;6.10;5.90;;;20.90;99.90;;;;;;5043408;28;20902;-64
2023/07/17 05:58:37;;;;;;;6.70;6.40;;;21.10;99.90;;;;;;5045883;28;20228;-62
2023/07/17 06:01:04;;;;;;;6.18;5.97;;;21.30;99.90;;;;;;5045072;28;20220;-63
2023/07/17 06:03:31;;;;;;;6.93;6.63;;;21.30;99.90;;;;;;5047558;28;20677;-62
2023/07/17 06:05:58;;;;;;;6.28;6.07;;;21.30;99.90;;;;;;5047428;28;20226;-62
2023/07/17 06:08:24;;;;;;;6.68;6.38;;;21.30;99.90;;;;;;5045376;28;20228;-62
2023/07/17 06:10:51;;;;;;;6.72;6.43;;;21.40;99.90;;;;;;5044877;28;20670;-61
2023/07/17 06:13:19;;;;;;;6.22;6.03;;;21.40;99.90;;;;;;5049996;28;20204;-62
2023/07/17 06:15:47;;;;;;;6.28;6.07;;;21.60;99.90;;;;;;5050037;28;20235;-63
2023/07/17 06:18:14;;;;;;;6.10;5.90;;;21.80;99.90;;;;;;5049659;28;20250;-62
2023/07/17 06:20:41;;;;;;;6.43;6.22;;;21.90;99.90;;;;;;5049949;28;20235;-62
2023/07/17 06:23:08;;;;;;;6.70;6.50;;;21.80;99.90;;;;;;5049919;28;20214;-62
2023/07/17 06:25:38;;;;;;;6.57;6.38;;;21.90;99.90;;;;;;5050961;28;20587;-62
2023/07/17 06:28:05;;;;;;;7.30;7.00;;;22.20;99.90;;;;;;5049894;28;21006;-63
2023/07/17 06:30:32;;;;;;;7.20;6.90;;;22.40;99.90;;;;;;5048883;28;20603;-62
2023/07/17 06:33:00;;;;;;;6.93;6.68;;;22.60;99.90;;;;;;5050245;28;20277;-62
2023/07/17 06:35:27;;;;;;;6.80;6.60;;;22.90;99.90;;;;;;5050026;28;20317;-64
2023/07/17 06:37:54;;;;;;;6.00;5.80;;;23.10;99.90;;;;;;5067351;22;20240;-65
2023/07/17 06:40:21;;;;;;;6.30;6.10;;;23.20;99.90;;;;;;5024763;28;20232;-64
2023/07/17 06:42:48;;;;;;;6.13;5.93;;;23.20;99.90;;;;;;5029796;28;20215;-65
2023/07/17 06:45:15;;;;;;;6.32;6.13;;;23.30;99.90;;;;;;5029920;28;20208;-64
2023/07/17 06:47:42;;;;;;;6.70;6.40;;;23.40;99.90;;;;;;5029658;28;20243;-63
2023/07/17 06:50:10;;;;;;;6.38;6.18;;;23.50;99.90;;;;;;5028894;28;20550;-64
2023/07/17 06:52:38;;;;;;;6.35;6.10;;;23.60;99.90;;;;;;5029361;28;20217;-64
2023/07/17 06:55:06;;;;;;;6.20;6.00;;;23.80;99.90;;;;;;5030029;28;20226;-64
2023/07/17 06:57:33;;;;;;;6.60;6.40;;;24.00;99.90;;;;;;5029228;28;20219;-64
2023/07/17 07:00:01;;;;;;;6.20;6.00;;;24.00;99.90;;;;;;5030478;28;20315;-63
2023/07/17 07:02:27;;;;;;;6.22;6.03;;;24.10;99.90;;;;;;5031083;28;20753;-65
2023/07/17 07:04:54;;;;;;;6.07;5.88;;;24.30;99.90;;;;;;5030863;28;20212;-64
2023/07/17 07:07:22;;;;;;;6.60;6.30;;;24.30;99.90;;;;;;5030831;28;20215;-66
2023/07/17 07:09:49;;;;;;;6.53;6.32;;;24.50;99.90;;;;;;5029840;28;20290;-66
2023/07/17 07:12:17;;;;;;;6.32;6.13;;;24.40;99.90;;;;;;5030969;28;20209;-63
2023/07/17 07:14:44;;;;;;;6.55;6.25;;;24.40;99.90;;;;;;5031553;28;20208;-65
2023/07/17 07:17:11;;;;;;;6.10;5.90;;;24.40;99.90;;;;;;5034713;28;20697;-64
2023/07/17 07:19:37;;;;;;;6.68;6.47;;;24.40;99.90;;;;;;5030437;28;20229;-65
2023/07/17 07:22:05;;;;;;;7.03;6.72;;;24.40;99.90;;;;;;5032365;28;20209;-63
2023/07/17 07:24:33;;;;;;;19.40;18.40;;;24.50;99.90;;;;;;5031543;28;20707;-66
2023/07/17 07:27:00;;;;;;;6.70;6.40;;;24.50;99.90;;;;;;5029442;28;20200;-64
2023/07/17 07:29:26;;;;;;;6.95;6.65;;;24.50;99.90;;;;;;5028792;28;20221;-64
2023/07/17 07:31:53;;;;;;;6.60;6.35;;;24.70;99.90;;;;;;5036183;28;20726;-64
2023/07/17 07:34:20;;;;;;;6.90;6.70;;;24.80;99.90;;;;;;5030590;28;20205;-63
2023/07/17 07:36:47;;;;;;;6.93;6.63;;;24.90;99.90;;;;;;5032882;28;20205;-64
2023/07/17 07:39:13;;;;;;;6.90;6.60;;;24.90;99.90;;;;;;5035797;28;20328;-65
2023/07/17 07:41:42;;;;;;;6.78;6.55;;;24.90;99.90;;;;;;5029750;28;20237;-63
2023/07/17 07:44:09;;;;;;;6.82;6.60;;;24.90;99.90;;;;;;5032102;28;20219;-64
2023/07/17 07:46:35;;;;;;;6.40;6.20;;;24.80;99.90;;;;;;5033664;28;20562;-65
2023/07/17 07:49:03;;;;;;;6.85;6.60;;;24.80;99.90;;;;;;5032512;28;20235;-65
2023/07/17 07:51:30;;;;;;;6.57;6.38;;;24.80;99.90;;;;;;5033920;28;20206;-63
2023/07/17 07:53:56;;;;;;;6.40;6.10;;;24.90;99.90;;;;;;5034139;28;20255;-65
2023/07/17 07:56:23;;;;;;;5.90;5.70;;;24.80;99.90;;;;;;5033459;28;20303;-63
2023/07/17 07:58:51;;;;;;;6.00;5.80;;;24.80;99.90;;;;;;5033828;28;20236;-65
2023/07/17 08:01:18;;;;;;;6.10;5.80;;;24.80;99.90;;;;;;5032791;28;20236;-65
2023/07/17 08:03:45;;;;;;;6.00;5.80;;;24.90;99.90;;;;;;5033142;28;20220;-64
2023/07/17 08:06:12;;;;;;;6.35;6.15;;;25.00;99.90;;;;;;5033177;28;20207;-64
2023/07/17 08:08:39;;;;;;;6.40;6.20;;;25.00;99.90;;;;;;5033489;28;20232;-63
2023/07/17 08:11:06;;;;;;;6.00;5.80;;;25.10;99.90;;;;;;5032919;28;20235;-62
2023/07/17 08:13:32;;;;;;;5.90;5.70;;;25.10;99.90;;;;;;5033145;28;20209;-62
2023/07/17 08:16:00;;;;;;;6.20;6.00;;;25.20;99.90;;;;;;5033157;28;20296;-64
2023/07/17 08:18:27;;;;;;;6.32;6.13;;;25.20;99.90;;;;;;5033029;28;20224;-66
2023/07/17 08:20:54;;;;;;;6.30;6.10;;;25.30;99.90;;;;;;5031324;28;20323;-64
2023/07/17 08:23:25;;;;;;;6.30;6.10;;;25.30;99.90;;;;;;5035404;28;20219;-63
2023/07/17 08:25:52;;;;;;;6.63;6.43;;;25.40;99.90;;;;;;5037664;28;20212;-66
2023/07/17 08:28:19;;;;;;;6.43;6.22;;;25.40;99.90;;;;;;5032626;28;20274;-64
2023/07/17 08:30:46;;;;;;;6.43;6.22;;;25.40;99.90;;;;;;5031280;28;20197;-65
2023/07/17 08:33:14;;;;;;;6.20;6.00;;;25.50;99.90;;;;;;5031970;28;20586;-64
2023/07/17 08:35:41;;;;;;;6.93;6.68;;;25.50;99.90;;;;;;5032547;28;20213;-63
2023/07/17 08:38:08;;;;;;;6.70;6.50;;;25.50;99.90;;;;;;5031384;28;20732;-64
2023/07/17 08:40:38;;;;;;;7.15;6.90;;;25.70;99.90;;;;;;5030921;28;20228;-64
2023/07/17 08:43:07;;;;;;;7.50;7.20;;;25.70;99.90;;;;;;5031457;28;20219;-64
2023/07/17 08:45:34;;;;;;;7.75;7.45;;;25.80;99.90;;;;;;5031577;28;20702;-65
2023/07/17 08:48:02;;;;;;;7.75;7.45;;;25.80;99.90;;;;;;5032938;28;20256;-65
2023/07/17 08:50:31;;;;;;;7.85;7.55;;;26.00;99.90;;;;;;5035047;28;20694;-65
2023/07/17 08:52:58;;;;;;;8.55;8.25;;;26.30;99.90;;;;;;5033406;28;20523;-65
2023/07/17 08:55:26;;;;;;;8.63;8.32;;;26.40;99.90;;;;;;5030940;28;20212;-64
2023/07/17 08:57:54;;;;;;;8.93;8.60;;;26.70;99.90;;;;;;5031408;28;20773;-65
2023/07/17 09:00:23;;;;;;;9.02;8.63;;;26.80;99.90;;;;;;5030445;28;20595;-64
2023/07/17 09:02:51;;;;;;;9.27;8.98;;;26.70;99.90;;;;;;5031068;28;20231;-64
2023/07/17 09:05:18;;;;;;;8.60;8.30;;;26.60;99.90;;;;;;5031744;28;20216;-65
2023/07/17 09:07:47;;;;;;;8.38;8.07;;;26.80;99.90;;;;;;5031101;28;20221;-64
2023/07/17 09:10:15;;;;;;;8.93;8.63;;;26.70;99.90;;;;;;5032997;28;21107;-65
2023/07/17 09:12:43;;;;;;;8.00;7.70;;;26.90;99.90;;;;;;5031358;28;20216;-65
2023/07/17 09:15:14;;;;;;;8.50;8.20;;;27.00;99.90;;;;;;5031504;28;20205;-64
2023/07/17 09:17:40;;;;;;;8.63;8.32;;;27.20;99.90;;;;;;5031402;28;20577;-65
2023/07/17 09:20:10;;;;;;;8.68;8.38;;;27.30;99.90;;;;;;5032079;28;20228;-62
2023/07/17 09:22:38;;;;;;;10.60;10.20;;;27.50;99.90;;;;;;5032876;28;20670;-65
2023/07/17 09:25:07;;;;;;;22.67;21.70;;;27.50;99.90;;;;;;5032561;28;20211;-64
2023/07/17 09:27:44;;;;;;;8.40;8.10;;;27.50;99.90;;;;;;5032056;28;20201;-65
2023/07/17 09:30:13;;;;;;;9.85;9.55;;;27.50;99.90;;;;;;5030336;28;20671;-64
2023/07/17 09:32:40;;;;;;;8.95;8.65;;;27.50;99.90;;;;;;5030349;28;20290;-63
2023/07/17 09:35:11;;;;;;;10.85;10.45;;;27.60;99.90;;;;;;5033462;28;20224;-65
2023/07/17 09:37:39;;;;;;;12.10;11.70;;;27.80;99.90;;;;;;5030666;28;20220;-62
2023/07/17 09:40:11;;;;;;;9.55;9.23;;;27.50;99.90;;;;;;5029739;28;20208;-64
2023/07/17 09:42:41;;;;;;;8.85;8.52;;;27.40;99.90;;;;;;5031199;28;20193;-65
2023/07/17 09:45:11;;;;;;;10.50;10.10;;;27.60;99.90;;;;;;5031065;28;20205;-64
2023/07/17 09:47:38;;;;;;;11.60;11.20;;;27.70;99.90;;;;;;5033831;28;20740;-63
2023/07/17 09:50:07;;;;;;;23.17;22.23;;;27.70;99.90;;;;;;5034650;28;20697;-64
2023/07/17 09:52:34;;;;;;;18.38;17.63;;;27.50;99.90;;;;;;5032564;28;20209;-63
2023/07/17 09:55:01;;;;;;;19.52;18.45;;;27.10;99.90;;;;;;5033819;28;20207;-64
2023/07/17 09:57:30;;;;;;;9.88;9.48;;;26.70;99.90;;;;;;5031569;28;20200;-65
2023/07/17 09:59:59;;;;;;;8.23;7.80;;;26.50;99.90;;;;;;5029946;28;20313;-65
2023/07/17 10:02:30;;;;;;;30.05;28.73;;;26.40;99.90;;;;;;5030623;28;20243;-66
2023/07/17 10:05:00;;;;;;;8.95;8.48;;;26.30;99.90;;;;;;5030642;28;20650;-63
2023/07/17 10:07:29;;;;;;;9.57;9.18;;;26.20;99.90;;;;;;5029696;28;20670;-64
2023/07/17 10:09:59;;;;;;;7.88;7.57;;;26.20;99.90;;;;;;5029578;28;20208;-65
2023/07/17 10:12:26;;;;;;;7.97;7.68;;;26.40;99.90;;;;;;5030480;28;20211;-65
2023/07/17 10:14:56;;;;;;;8.60;8.20;;;26.50;99.90;;;;;;5030807;28;20209;-63
2023/07/17 10:17:30;;;;;;;8.25;7.95;;;26.60;99.90;;;;;;5030226;28;20211;-65
2023/07/17 10:19:59;;;;;;;8.45;8.05;;;26.90;99.90;;;;;;5029744;28;20732;-63
2023/07/17 10:22:32;;;;;;;10.60;10.20;;;27.30;99.90;;;;;;5036039;28;20236;-62
2023/07/17 10:24:59;;;;;;;8.50;8.20;;;27.60;99.90;;;;;;5041588;28;20576;-64
2023/07/17 10:27:45;;;;;;;8.75;8.45;;;27.80;99.90;;;;;;5030461;28;20204;-63
2023/07/17 10:30:28;;;;;;;18.98;18.27;;;28.20;99.90;;;;;;5029782;28;20208;-64
2023/07/17 10:33:22;;;;;;;10.15;9.75;;;28.20;99.90;;;;;;5030680;28;20691;-63
2023/07/17 10:35:51;;;;;;;10.07;9.68;;;28.20;99.90;;;;;;5006646;28;20286;-63
2023/07/17 10:38:19;;;;;;;11.63;11.23;;;28.30;99.90;;;;;;5029819;28;20236;-62
2023/07/17 10:40:46;;;;;;;19.60;18.80;;;28.70;99.90;;;;;;5029545;28;20232;-63
2023/07/17 10:43:18;;;;;;;13.32;12.82;;;28.90;99.90;;;;;;5030389;28;20204;-64
2023/07/17 10:45:48;;;;;;;14.85;14.35;;;28.90;99.90;;;;;;5031121;28;20209;-63
2023/07/17 10:48:17;;;;;;;14.35;13.85;;;28.70;99.90;;;;;;5031547;28;20228;-64
2023/07/17 10:50:52;;;;;;;14.98;14.48;;;28.50;99.90;;;;;;5029217;28;20208;-63
2023/07/17 10:53:19;;;;;;;14.05;13.55;;;28.40;99.90;;;;;;5029836;28;20737;-65
2023/07/17 10:55:47;;;;;;;12.05;11.65;;;28.40;99.90;;;;;;5029973;28;20685;-64
2023/07/17 10:58:14;;;;;;;13.23;12.73;;;28.70;99.90;;;;;;5029668;28;20230;-63
2023/07/17 11:00:42;;;;;;;12.30;11.90;;;29.10;99.90;;;;;;5029561;28;20223;-65
2023/07/17 11:03:10;;;;;;;11.27;10.80;;;29.30;99.90;;;;;;5030389;28;20259;-65
2023/07/17 11:05:38;;;;;;;11.30;10.90;;;29.50;99.90;;;;;;5030837;28;20204;-63
2023/07/17 11:08:06;;;;;;;9.52;9.15;;;29.40;99.90;;;;;;5031192;28;20228;-64
2023/07/17 11:10:33;;;;;;;9.43;9.02;;;29.40;99.90;;;;;;5030673;28;20219;-64
2023/07/17 11:13:02;;;;;;;10.63;10.23;;;29.60;99.90;;;;;;5031158;28;20208;-64
2023/07/17 11:15:32;;;;;;;9.40;9.10;;;29.40;99.90;;;;;;5030540;28;20204;-65
2023/07/17 11:18:00;;;;;;;10.55;10.20;;;29.10;99.90;;;;;;5031743;28;20220;-64
2023/07/17 11:20:28;;;;;;;13.40;12.90;;;28.90;99.90;;;;;;5033729;28;20219;-63
2023/07/17 11:22:56;;;;;;;9.75;9.43;;;28.70;99.90;;;;;;5034503;28;20244;-65
2023/07/17 11:25:25;;;;;;;25.73;24.65;;;28.60;99.90;;;;;;5034744;28;20207;-65
2023/07/17 11:27:53;;;;;;;10.15;9.75;;;28.60;99.90;;;;;;5034444;28;20233;-64
2023/07/17 11:30:21;;;;;;;9.50;9.20;;;28.50;99.90;;;;;;5034201;28;20233;-65
2023/07/17 11:32:56;;;;;;;10.15;9.75;;;28.30;99.90;;;;;;5037049;28;20285;-65
2023/07/17 11:35:23;;;;;;;9.85;9.52;;;28.40;99.90;;;;;;5035181;28;20208;-63
2023/07/17 11:37:51;;;;;;;8.57;8.27;;;28.60;99.90;;;;;;5034264;28;20229;-65
2023/07/17 11:40:18;;;;;;;7.88;7.57;;;28.90;99.90;;;;;;5033480;28;20232;-64
2023/07/17 11:42:55;;;;;;;9.23;8.88;;;29.10;99.90;;;;;;5034791;28;20224;-65
2023/07/17 11:45:25;;;;;;;9.30;9.00;;;29.20;99.90;;;;;;5035598;28;20675;-65
2023/07/17 11:47:53;;;;;;;10.85;10.45;;;29.40;99.90;;;;;;5034353;28;20233;-64
2023/07/17 11:50:21;;;;;;;9.95;9.55;;;29.40;99.90;;;;;;5033233;28;20741;-63
2023/07/17 11:52:48;;;;;;;9.43;9.13;;;29.30;99.90;;;;;;5033920;28;20204;-63
2023/07/17 11:55:21;;;;;;;10.43;10.02;;;29.00;99.90;;;;;;5034228;28;20213;-64
2023/07/17 11:57:51;;;;;;;11.00;10.60;;;29.00;99.90;;;;;;5042179;28;20259;-62
2023/07/17 12:00:18;;;;;;;9.45;9.15;;;28.90;99.90;;;;;;5033624;28;20266;-63
2023/07/17 12:02:47;;;;;;;17.20;16.50;;;28.90;99.90;;;;;;5038635;28;20228;-65
2023/07/17 12:05:14;;;;;;;10.60;10.20;;;29.20;99.90;;;;;;5034728;28;20558;-65
2023/07/17 12:07:41;;;;;;;9.73;9.43;;;29.40;99.90;;;;;;5036219;28;20752;-65
2023/07/17 12:10:09;;;;;;;9.68;9.38;;;29.50;99.90;;;;;;5035530;28;20219;-64
2023/07/17 12:12:38;;;;;;;9.45;9.13;;;29.40;99.90;;;;;;5033926;28;20565;-63
2023/07/17 12:15:06;;;;;;;10.50;10.10;;;29.50;99.90;;;;;;5033636;28;20215;-64
2023/07/17 12:17:33;;;;;;;9.57;9.18;;;29.60;99.90;;;;;;5033661;28;20208;-65
2023/07/17 12:20:00;;;;;;;11.25;10.75;;;29.70;99.90;;;;;;5032740;28;20209;-64
2023/07/17 12:22:27;;;;;;;9.80;9.40;;;30.00;99.90;;;;;;5034234;28;20221;-66
2023/07/17 12:24:54;;;;;;;9.20;8.90;;;30.10;99.90;;;;;;5033390;28;20215;-65
2023/07/17 12:27:20;;;;;;;11.75;11.35;;;30.20;99.90;;;;;;5033242;28;20215;-64
2023/07/17 12:29:49;;;;;;;9.98;9.63;;;30.10;99.90;;;;;;5032161;28;20223;-64
2023/07/17 12:32:15;;;;;;;34.67;33.15;;;30.10;99.90;;;;;;5033502;28;20197;-67
2023/07/17 12:34:42;;;;;;;10.63;10.23;;;29.90;99.90;;;;;;5033385;28;20299;-64
2023/07/17 12:37:09;;;;;;;15.82;15.23;;;29.50;99.90;;;;;;5032953;28;20205;-65
2023/07/17 12:39:36;;;;;;;10.07;9.60;;;29.10;99.90;;;;;;5046629;22;20229;-62
2023/07/17 12:42:03;;;;;;;9.30;9.00;;;28.80;99.90;;;;;;5036872;28;20413;-60
2023/07/17 12:44:30;;;;;;;9.57;9.27;;;28.90;99.90;;;;;;5031382;28;20212;-61
2023/07/17 12:46:58;;;;;;;12.40;12.00;;;29.20;99.90;;;;;;5031377;28;20886;-61